Time;durP1;ratioP1;P1;durP2;ratioP2;P2;SDS_P1;SDS_P2;PMS_P1;PMS_P2;Temp;Humidity;BMP_temperature;BMP_pressure;BME280_temperature;BME280_humidity;BME280_pressure;Samples;Min_cycle;Max_cycle;Signal;HPM_P1;HPM_P2
2022/05/07 00:00:49;;;;;;;10.45;3.67;;;14.60;99.90;;;;;;5030372;28;20052;-69
2022/05/07 00:03:53;;;;;;;13.70;3.75;;;14.70;99.90;;;;;;5034093;28;20495;-70
2022/05/07 00:06:57;;;;;;;8.88;2.90;;;14.90;99.90;;;;;;5033216;28;20449;-71
2022/05/07 00:10:00;;;;;;;9.88;3.35;;;14.90;99.90;;;;;;5033684;28;20048;-70
2022/05/07 00:13:05;;;;;;;9.35;4.45;;;14.80;99.90;;;;;;5033417;28;20040;-68
2022/05/07 00:19:32;;;;;;;;;;;14.90;99.90;;;;;;5034237;28;20056;-69
2022/05/07 00:22:36;;;;;;;9.30;3.42;;;14.80;99.90;;;;;;5033633;28;19913;-69
2022/05/07 00:25:40;;;;;;;10.00;3.70;;;14.70;99.90;;;;;;5033598;28;20048;-69
2022/05/07 00:28:45;;;;;;;5.45;3.13;;;14.60;99.90;;;;;;5033338;28;20068;-70
2022/05/07 00:31:49;;;;;;;12.63;3.25;;;14.60;99.90;;;;;;5033008;28;20040;-70
2022/05/07 00:34:53;;;;;;;8.25;3.22;;;14.70;99.90;;;;;;5033342;28;20040;-71
2022/05/07 00:37:57;;;;;;;11.65;3.25;;;14.80;99.90;;;;;;5021016;28;20048;-71
2022/05/07 00:41:00;;;;;;;4.25;2.80;;;14.70;99.90;;;;;;5032925;28;20060;-70
2022/05/07 00:44:05;;;;;;;7.40;2.72;;;14.80;99.90;;;;;;5032888;28;20396;-70
2022/05/07 00:47:15;;;;;;;8.02;3.10;;;14.80;99.90;;;;;;5032996;28;20048;-70
2022/05/07 00:53:42;;;;;;;4.65;3.17;;;14.80;99.90;;;;;;5032945;28;20404;-70
2022/05/07 00:56:46;;;;;;;7.75;3.03;;;14.80;99.90;;;;;;5020189;28;20048;-69
2022/05/07 00:59:50;;;;;;;8.85;3.25;;;14.70;99.90;;;;;;5020502;28;20045;-70
2022/05/07 01:02:55;;;;;;;5.60;2.80;;;14.60;99.90;;;;;;5020334;28;20048;-70
2022/05/07 01:06:00;;;;;;;7.53;3.00;;;14.50;99.90;;;;;;5020341;28;20045;-70
2022/05/07 01:09:05;;;;;;;7.38;3.22;;;14.60;99.90;;;;;;5020016;28;20054;-69
2022/05/07 01:12:10;;;;;;;7.10;3.20;;;14.60;99.90;;;;;;5020261;28;20036;-70
2022/05/07 01:15:15;;;;;;;5.68;2.75;;;14.60;99.90;;;;;;5020223;28;20068;-71
2022/05/07 01:18:21;;;;;;;9.70;3.10;;;14.50;99.90;;;;;;5019602;28;20112;-71
2022/05/07 01:21:27;;;;;;;7.72;3.15;;;14.50;99.90;;;;;;5020198;28;20048;-70
2022/05/07 01:24:33;;;;;;;6.78;3.28;;;14.60;99.90;;;;;;5031636;28;20053;-71
2022/05/07 01:27:37;;;;;;;7.63;3.13;;;14.50;99.90;;;;;;5032507;28;20048;-70
2022/05/07 01:30:41;;;;;;;6.60;3.28;;;14.60;99.90;;;;;;5031321;28;20048;-70
2022/05/07 01:33:45;;;;;;;8.45;3.45;;;14.50;99.90;;;;;;5019878;28;20388;-70
2022/05/07 01:36:54;;;;;;;10.88;3.25;;;14.50;99.90;;;;;;5019758;28;20420;-70
2022/05/07 01:39:58;;;;;;;10.77;3.30;;;14.40;99.90;;;;;;5019821;28;20045;-70
2022/05/07 01:43:02;;;;;;;7.68;3.28;;;14.40;99.90;;;;;;5031757;28;20505;-70
2022/05/07 01:48:09;;;;;;;8.40;3.50;;;14.40;99.90;;;;;;5019892;28;20507;-70
2022/05/07 01:49:31;;;;;;;6.20;3.17;;;14.50;99.90;;;;;;5019824;28;20070;-70
2022/05/07 01:52:36;;;;;;;10.75;3.05;;;14.60;99.90;;;;;;5032103;28;20048;-69
2022/05/07 01:55:42;;;;;;;11.30;2.80;;;14.70;99.90;;;;;;5020089;28;20656;-69
2022/05/07 01:58:48;;;;;;;6.45;3.50;;;14.70;99.90;;;;;;5030555;28;20041;-70
2022/05/07 02:01:52;;;;;;;7.68;2.83;;;14.80;99.90;;;;;;5019407;28;20403;-70
2022/05/07 02:04:56;;;;;;;5.63;2.83;;;14.80;99.90;;;;;;5030819;28;20044;-68
2022/05/07 02:08:03;;;;;;;8.65;3.38;;;14.80;99.90;;;;;;5018873;28;20045;-70
2022/05/07 02:11:06;;;;;;;7.32;2.60;;;14.80;99.90;;;;;;5019627;28;20052;-70
2022/05/07 02:14:12;;;;;;;10.00;3.58;;;14.80;99.90;;;;;;5019471;28;20066;-69
2022/05/07 02:17:16;;;;;;;11.38;3.50;;;14.90;99.90;;;;;;5019158;28;20044;-71
2022/05/07 02:20:20;;;;;;;7.47;2.80;;;14.90;99.90;;;;;;5031388;28;20065;-70
2022/05/07 02:23:24;;;;;;;8.15;3.83;;;14.90;99.90;;;;;;5018857;28;20049;-70
2022/05/07 02:26:28;;;;;;;10.60;3.78;;;15.10;99.90;;;;;;5017864;28;20400;-70
2022/05/07 02:29:34;;;;;;;9.15;2.75;;;15.10;99.90;;;;;;5029903;28;20495;-71
2022/05/07 02:32:40;;;;;;;11.15;3.20;;;15.00;99.90;;;;;;5018854;28;20043;-71
2022/05/07 02:35:47;;;;;;;7.32;2.90;;;14.90;99.90;;;;;;5018919;28;20507;-72
2022/05/07 02:38:51;;;;;;;5.40;3.00;;;14.80;99.90;;;;;;5030990;28;20045;-70
2022/05/07 02:45:18;;;;;;;10.38;2.63;;;14.80;99.90;;;;;;5031445;28;20124;-70
2022/05/07 02:48:25;;;;;;;9.98;4.10;;;14.70;99.90;;;;;;5018164;28;20068;-70
2022/05/07 02:51:30;;;;;;;6.72;2.75;;;14.70;99.90;;;;;;5030859;28;20056;-70
2022/05/07 02:54:35;;;;;;;8.35;3.00;;;14.70;99.90;;;;;;5030250;28;20502;-71
2022/05/07 02:57:40;;;;;;;4.80;2.60;;;14.60;99.90;;;;;;5018240;28;20491;-70
2022/05/07 03:00:44;;;;;;;5.47;2.60;;;14.50;99.90;;;;;;5029941;28;20507;-70
2022/05/07 03:03:47;;;;;;;9.15;3.50;;;14.40;99.90;;;;;;5018689;28;20495;-70
2022/05/07 03:06:51;;;;;;;5.85;2.88;;;14.30;99.90;;;;;;5018084;28;20056;-70
2022/05/07 03:09:55;;;;;;;9.80;4.30;;;14.10;99.90;;;;;;5030637;28;20052;-70
2022/05/07 03:12:59;;;;;;;7.72;2.78;;;14.00;99.90;;;;;;5030645;28;20495;-72
2022/05/07 03:16:04;;;;;;;9.13;3.15;;;13.90;99.90;;;;;;5017832;28;20044;-70
2022/05/07 03:19:10;;;;;;;7.20;3.00;;;13.90;99.90;;;;;;5029310;28;20052;-70
2022/05/07 03:22:15;;;;;;;6.97;2.80;;;13.90;99.90;;;;;;5018178;28;20396;-70
2022/05/07 03:25:19;;;;;;;7.68;3.25;;;14.00;99.90;;;;;;5029242;28;20519;-69
2022/05/07 03:28:25;;;;;;;2.08;1.38;;;13.90;99.90;;;;;;5017840;28;20052;-72
2022/05/07 03:31:30;;;;;;;2.75;1.60;;;13.90;99.90;;;;;;5017518;28;20040;-69
2022/05/07 03:34:34;;;;;;;7.38;2.83;;;14.20;99.90;;;;;;5017912;28;20036;-70
2022/05/07 03:37:39;;;;;;;2.95;1.95;;;14.40;99.90;;;;;;5020930;28;20052;-70
2022/05/07 03:40:46;;;;;;;5.35;2.10;;;14.30;99.90;;;;;;5021995;28;20052;-70
2022/05/07 03:43:51;;;;;;;6.45;2.28;;;14.20;99.90;;;;;;5021875;28;20387;-72
2022/05/07 03:46:55;;;;;;;5.30;2.00;;;14.00;99.90;;;;;;5033885;28;20040;-70
2022/05/07 03:50:00;;;;;;;5.05;2.15;;;13.90;99.90;;;;;;5033179;28;20056;-70
2022/05/07 03:56:27;;;;;;;6.45;3.10;;;13.70;99.90;;;;;;5033415;28;20503;-70
2022/05/07 03:59:32;;;;;;;6.18;2.78;;;13.50;99.90;;;;;;5021717;28;20542;-69
2022/05/07 04:02:36;;;;;;;3.00;2.00;;;13.40;99.90;;;;;;5033143;28;20052;-70
2022/05/07 04:05:40;;;;;;;9.73;2.78;;;13.30;99.90;;;;;;5021024;28;20044;-69
2022/05/07 04:08:49;;;;;;;2.78;2.22;;;13.30;99.90;;;;;;5021253;28;20048;-70
2022/05/07 04:11:53;;;;;;;7.13;2.03;;;13.20;99.90;;;;;;5033648;28;20049;-69
2022/05/07 04:15:01;;;;;;;3.15;1.77;;;13.30;99.90;;;;;;5021495;28;20048;-70
2022/05/07 04:18:07;;;;;;;4.82;2.20;;;13.30;99.90;;;;;;5021185;28;20052;-70
2022/05/07 04:21:14;;;;;;;5.90;3.17;;;13.30;99.90;;;;;;5032259;28;20052;-69
2022/05/07 04:24:19;;;;;;;7.25;2.70;;;13.20;99.90;;;;;;5021252;28;20507;-70
2022/05/07 04:27:26;;;;;;;4.47;2.67;;;13.10;99.90;;;;;;5020774;28;20045;-69
2022/05/07 04:30:35;;;;;;;6.22;2.20;;;13.10;99.90;;;;;;5020365;28;20048;-69
2022/05/07 04:33:39;;;;;;;4.82;1.90;;;13.10;99.90;;;;;;5021009;28;20072;-69
2022/05/07 04:36:48;;;;;;;5.18;1.38;;;13.10;99.90;;;;;;5020586;28;20496;-69
2022/05/07 04:39:53;;;;;;;3.80;1.85;;;13.30;99.90;;;;;;5020822;28;20428;-69
2022/05/07 04:42:57;;;;;;;2.90;1.40;;;13.40;99.90;;;;;;5033373;28;20052;-69
2022/05/07 04:46:01;;;;;;;2.42;1.30;;;13.40;99.90;;;;;;5020909;28;20048;-69
2022/05/07 04:49:06;;;;;;;7.28;2.20;;;13.40;99.90;;;;;;5017718;28;20117;-69
2022/05/07 04:52:12;;;;;;;5.50;3.00;;;13.30;99.90;;;;;;5020549;28;20056;-70
2022/05/07 04:55:17;;;;;;;3.97;2.47;;;13.30;99.90;;;;;;5020564;28;20041;-69
2022/05/07 04:58:24;;;;;;;5.43;2.63;;;13.30;99.90;;;;;;5020277;28;20056;-69
2022/05/07 05:01:28;;;;;;;5.55;2.85;;;13.40;99.90;;;;;;5032546;28;20052;-69
2022/05/07 05:04:33;;;;;;;4.55;2.33;;;13.40;99.90;;;;;;5032415;28;20052;-70
2022/05/07 05:07:39;;;;;;;4.45;2.67;;;13.50;99.90;;;;;;5019487;28;20048;-69
2022/05/07 05:10:43;;;;;;;3.10;2.00;;;13.60;99.90;;;;;;5020068;28;20064;-69
2022/05/07 05:13:48;;;;;;;8.07;2.30;;;13.60;99.90;;;;;;5019724;28;20044;-69
2022/05/07 05:16:53;;;;;;;3.03;2.10;;;13.70;99.90;;;;;;5030531;28;20396;-70
2022/05/07 05:19:57;;;;;;;7.15;2.08;;;13.90;99.90;;;;;;5019610;28;20057;-70
2022/05/07 05:23:02;;;;;;;4.78;1.80;;;14.20;99.90;;;;;;5031229;28;20044;-70
2022/05/07 05:26:15;;;;;;;3.83;1.80;;;14.40;99.90;;;;;;5030574;28;20041;-69
2022/05/07 05:29:25;;;;;;;3.92;1.60;;;14.50;99.90;;;;;;5031030;28;20415;-69
2022/05/07 05:32:30;;;;;;;5.25;1.88;;;14.50;99.90;;;;;;5032145;28;20518;-69
2022/05/07 05:35:38;;;;;;;4.38;1.73;;;14.60;99.90;;;;;;5019845;28;20052;-70
2022/05/07 05:38:42;;;;;;;2.88;1.67;;;14.70;99.90;;;;;;5019751;28;20068;-70
2022/05/07 05:41:49;;;;;;;2.63;1.50;;;15.00;99.90;;;;;;5019896;28;20048;-70
2022/05/07 05:44:54;;;;;;;9.02;2.78;;;15.30;99.90;;;;;;5019484;28;20418;-70
2022/05/07 05:48:01;;;;;;;9.10;2.50;;;15.50;99.90;;;;;;5029818;28;20052;-69
2022/05/07 05:51:07;;;;;;;3.90;2.00;;;15.80;99.90;;;;;;5019653;28;20040;-69
2022/05/07 05:54:15;;;;;;;2.88;1.60;;;16.00;99.90;;;;;;5030704;28;20510;-70
2022/05/07 05:57:22;;;;;;;2.95;1.70;;;16.20;99.90;;;;;;5018951;28;20059;-70
2022/05/07 06:00:26;;;;;;;2.22;1.40;;;16.40;99.90;;;;;;5030493;28;20673;-70
2022/05/07 06:03:31;;;;;;;5.93;1.45;;;16.60;99.90;;;;;;5019418;28;20044;-70
2022/05/07 06:06:36;;;;;;;3.63;1.40;;;16.80;99.90;;;;;;5018699;28;20053;-70
2022/05/07 06:09:40;;;;;;;2.33;1.40;;;17.10;99.90;;;;;;5018761;28;20048;-70
2022/05/07 06:12:50;;;;;;;3.22;1.42;;;18.30;99.90;;;;;;5018800;28;20041;-70
2022/05/07 06:15:54;;;;;;;4.25;1.52;;;20.00;99.90;;;;;;5030944;28;20132;-70
2022/05/07 06:19:01;;;;;;;2.63;1.00;;;21.50;99.90;;;;;;5030132;28;20048;-70
2022/05/07 06:22:06;;;;;;;3.42;1.00;;;22.30;99.90;;;;;;5018726;28;20059;-70
2022/05/07 06:28:41;;;;;;;5.53;1.95;;;23.70;99.90;;;;;;5030964;28;20045;-72
2022/05/07 06:31:45;;;;;;;7.13;1.70;;;24.40;99.90;;;;;;5018619;28;20056;-71
2022/05/07 06:34:50;;;;;;;5.82;1.92;;;23.90;99.90;;;;;;5029830;28;20049;-70
2022/05/07 06:37:55;;;;;;;6.30;2.25;;;23.30;99.90;;;;;;5018131;28;20048;-71
2022/05/07 06:41:04;;;;;;;6.75;2.63;;;22.80;99.90;;;;;;5018529;28;20052;-72
2022/05/07 06:44:09;;;;;;;5.60;2.10;;;22.10;99.90;;;;;;5018637;28;20044;-71
2022/05/07 06:47:14;;;;;;;10.93;2.50;;;21.50;99.90;;;;;;5017697;28;20512;-69
2022/05/07 06:50:19;;;;;;;5.75;2.05;;;20.80;99.90;;;;;;5029484;28;20048;-70
2022/05/07 06:53:23;;;;;;;4.03;1.67;;;21.60;99.90;;;;;;5030387;28;20048;-71
2022/05/07 06:56:27;;;;;;;6.05;1.95;;;22.80;99.90;;;;;;5030079;28;20070;-71
2022/05/07 06:59:31;;;;;;;7.53;2.00;;;23.50;99.90;;;;;;5030077;28;20511;-70
2022/05/07 07:02:35;;;;;;;5.13;1.85;;;24.80;98.90;;;;;;5030861;28;20116;-71
2022/05/07 07:05:39;;;;;;;6.10;1.98;;;23.50;99.70;;;;;;5029844;28;20048;-70
2022/05/07 07:08:43;;;;;;;5.03;2.17;;;24.30;99.40;;;;;;5030073;28;20059;-70
2022/05/07 07:11:47;;;;;;;3.53;1.60;;;23.90;99.30;;;;;;5030072;28;20036;-71
2022/05/07 07:14:54;;;;;;;7.57;2.10;;;23.80;99.20;;;;;;5030283;28;20052;-71
2022/05/07 07:17:58;;;;;;;2.85;1.60;;;24.30;99.50;;;;;;5029567;28;20048;-69
2022/05/07 07:21:02;;;;;;;5.75;1.67;;;24.80;97.80;;;;;;5030477;28;20429;-70
2022/05/07 07:24:06;;;;;;;4.78;1.45;;;25.00;98.70;;;;;;5030994;28;20036;-71
2022/05/07 07:27:09;;;;;;;2.50;1.48;;;23.50;98.60;;;;;;5029750;28;20495;-70
2022/05/07 07:30:13;;;;;;;3.33;1.75;;;22.30;99.90;;;;;;5029635;28;20056;-70
2022/05/07 07:33:18;;;;;;;7.88;2.00;;;21.50;99.90;;;;;;5030093;28;20499;-70
2022/05/07 07:36:22;;;;;;;3.55;1.92;;;21.30;99.90;;;;;;5029627;28;20562;-70
2022/05/07 07:39:26;;;;;;;3.72;2.03;;;21.00;99.90;;;;;;5029897;28;20040;-70
2022/05/07 07:42:31;;;;;;;2.15;1.27;;;21.90;99.90;;;;;;5029999;28;20396;-70
2022/05/07 07:48:59;;;;;;;4.78;1.98;;;21.70;99.90;;;;;;5030464;28;20045;-70
2022/05/07 07:52:03;;;;;;;6.82;2.13;;;20.40;99.90;;;;;;5030067;28;20491;-69
2022/05/07 07:55:07;;;;;;;2.38;1.55;;;19.60;99.90;;;;;;5030616;28;20043;-70
2022/05/07 07:58:12;;;;;;;3.88;2.05;;;19.70;99.90;;;;;;5030077;28;20052;-71
2022/05/07 08:01:16;;;;;;;5.07;1.92;;;19.60;99.90;;;;;;5030747;28;20502;-70
2022/05/07 08:04:21;;;;;;;3.42;1.77;;;20.00;99.90;;;;;;5030483;28;20044;-70
2022/05/07 08:14:14;;;;;;;7.38;2.35;;;21.40;99.90;;;;;;5030641;28;20053;-70
2022/05/07 08:17:18;;;;;;;4.07;2.00;;;21.70;99.90;;;;;;5029990;28;20068;-70
2022/05/07 08:20:21;;;;;;;5.03;1.80;;;23.50;99.90;;;;;;5029974;28;20040;-71
2022/05/07 08:23:26;;;;;;;5.22;1.73;;;25.30;99.20;;;;;;5033160;28;20399;-71
2022/05/07 08:26:30;;;;;;;4.80;1.67;;;26.60;96.50;;;;;;5033528;28;20053;-71
2022/05/07 08:29:35;;;;;;;5.35;1.77;;;28.10;96.50;;;;;;5033683;28;20064;-71
2022/05/07 08:32:39;;;;;;;2.80;1.70;;;28.70;94.50;;;;;;5034339;28;20048;-71
2022/05/07 08:35:43;;;;;;;3.50;1.55;;;29.30;93.70;;;;;;5034122;28;20049;-71
2022/05/07 08:38:47;;;;;;;6.68;1.52;;;30.10;93.60;;;;;;5033946;28;20052;-71
2022/05/07 08:41:51;;;;;;;4.10;1.73;;;30.00;92.50;;;;;;5033844;28;20053;-72
2022/05/07 08:44:56;;;;;;;7.85;1.52;;;30.80;92.30;;;;;;5048220;28;20048;-70
2022/05/07 08:48:00;;;;;;;5.70;2.10;;;28.90;91.70;;;;;;5036590;28;20496;-71
2022/05/07 08:51:05;;;;;;;7.75;2.08;;;27.60;92.20;;;;;;5052905;28;20048;-71
2022/05/07 08:54:11;;;;;;;5.90;2.00;;;27.20;93.20;;;;;;5034760;28;20040;-71
2022/05/07 08:57:16;;;;;;;3.10;1.63;;;27.00;93.40;;;;;;5033690;28;20048;-72
2022/05/07 09:00:23;;;;;;;6.80;2.15;;;26.60;93.80;;;;;;5033477;28;20056;-73
2022/05/07 09:03:41;;;;;;;6.80;2.00;;;25.80;94.30;;;;;;5033975;28;20052;-71
2022/05/07 09:06:56;;;;;;;10.60;2.45;;;25.60;94.70;;;;;;5031507;28;20400;-70
2022/05/07 09:10:00;;;;;;;4.13;1.85;;;24.90;94.60;;;;;;5033511;28;20053;-71
2022/05/07 09:13:16;;;;;;;10.95;2.90;;;24.10;96.00;;;;;;5053527;28;20474;-71
2022/05/07 09:16:21;;;;;;;5.18;1.60;;;24.20;96.30;;;;;;5033627;28;20407;-73
2022/05/07 09:19:30;;;;;;;5.97;2.08;;;26.30;93.60;;;;;;5045358;28;20052;-73
2022/05/07 09:22:34;;;;;;;7.35;2.80;;;27.40;94.10;;;;;;5041560;28;20048;-71
2022/05/07 09:25:46;;;;;;;13.07;2.90;;;25.10;94.70;;;;;;5042931;28;20044;-74
2022/05/07 09:28:50;;;;;;;7.65;2.58;;;23.60;96.20;;;;;;5034743;28;20071;-73
2022/05/07 09:31:54;;;;;;;11.40;3.00;;;23.40;96.40;;;;;;5047741;28;20364;-72
2022/05/07 09:38:26;;;;;;;10.05;2.22;;;26.20;95.40;;;;;;5044297;28;20048;-72
2022/05/07 09:41:30;;;;;;;8.98;2.45;;;27.90;93.90;;;;;;5037416;28;20044;-73
2022/05/07 09:44:36;;;;;;;9.55;2.83;;;29.10;93.10;;;;;;5037218;28;20048;-72
2022/05/07 09:47:41;;;;;;;10.10;4.13;;;30.20;92.40;;;;;;5044414;28;20067;-72
2022/05/07 09:50:45;;;;;;;8.02;2.58;;;29.60;91.70;;;;;;5044785;28;20387;-73
2022/05/07 10:00:39;;;;;;;6.90;2.97;;;25.10;95.30;;;;;;5050430;28;20595;-74
2022/05/07 10:03:46;;;;;;;5.00;2.72;;;24.90;95.30;;;;;;5031151;28;20064;-73
2022/05/07 10:07:23;;;;;;;5.22;2.75;;;25.30;95.30;;;;;;5031572;28;20048;-72
2022/05/07 10:10:33;;;;;;;5.95;2.83;;;25.70;94.90;;;;;;5030778;28;20392;-73
2022/05/07 10:13:38;;;;;;;3.75;2.38;;;25.90;94.70;;;;;;5032184;28;20052;-71
2022/05/07 10:16:42;;;;;;;4.28;2.13;;;25.60;94.60;;;;;;5031807;28;20052;-72
2022/05/07 10:19:49;;;;;;;3.75;2.63;;;25.90;95.00;;;;;;5031965;28;20415;-71
2022/05/07 10:22:57;;;;;;;3.38;2.08;;;25.80;94.00;;;;;;5032032;28;20068;-72
2022/05/07 10:26:02;;;;;;;8.43;3.00;;;25.60;95.20;;;;;;5031887;28;20372;-72
2022/05/07 10:29:07;;;;;;;6.55;2.20;;;25.70;94.90;;;;;;5032444;28;20494;-74
2022/05/07 10:32:11;;;;;;;6.57;2.58;;;25.10;95.00;;;;;;5031644;28;20056;-72
2022/05/07 10:35:39;;;;;;;3.40;2.20;;;25.70;95.30;;;;;;5031518;28;20400;-75
2022/05/07 10:38:45;;;;;;;6.85;3.17;;;26.20;94.70;;;;;;5031798;28;20083;-73
2022/05/07 10:41:49;;;;;;;6.45;2.78;;;25.40;95.40;;;;;;5031403;28;20064;-75
2022/05/07 10:44:53;;;;;;;7.25;2.70;;;24.80;95.90;;;;;;5031104;28;20036;-71
2022/05/07 10:47:58;;;;;;;5.45;2.85;;;23.60;96.50;;;;;;5030375;28;20049;-72
2022/05/07 10:51:02;;;;;;;7.03;2.80;;;22.50;97.00;;;;;;5028665;28;20049;-71
2022/05/07 10:54:22;;;;;;;3.85;2.25;;;23.20;97.90;;;;;;5031592;28;20594;-73
2022/05/07 10:57:36;;;;;;;4.65;2.20;;;24.70;96.10;;;;;;5030712;28;20617;-73
2022/05/07 11:00:41;;;;;;;9.57;2.38;;;23.90;95.80;;;;;;5031363;28;20048;-73
2022/05/07 11:03:46;;;;;;;5.60;2.58;;;22.60;97.20;;;;;;5030516;28;20531;-73
2022/05/07 11:06:52;;;;;;;9.68;2.58;;;22.10;97.80;;;;;;5030733;28;20044;-72
2022/05/07 11:09:56;;;;;;;8.73;2.47;;;22.50;98.40;;;;;;5031117;28;20052;-70
2022/05/07 11:13:19;;;;;;;5.63;2.50;;;22.60;98.10;;;;;;5030992;28;20332;-72
2022/05/07 11:16:24;;;;;;;7.82;2.60;;;22.70;98.40;;;;;;5030272;28;20061;-71
2022/05/07 11:19:38;;;;;;;6.40;2.25;;;22.20;98.70;;;;;;5030882;28;20068;-74
2022/05/07 11:22:42;;;;;;;8.80;2.83;;;21.90;99.00;;;;;;5030660;28;20113;-74
2022/05/07 11:25:48;;;;;;;6.72;2.83;;;21.10;99.90;;;;;;5030354;28;20049;-74
2022/05/07 11:28:52;;;;;;;9.70;3.55;;;21.40;99.90;;;;;;5029588;28;20265;-73
2022/05/07 11:32:00;;;;;;;12.57;3.65;;;22.00;99.90;;;;;;5030229;28;20071;-71
2022/05/07 11:35:06;;;;;;;9.00;3.03;;;22.30;99.50;;;;;;5017892;28;20380;-73
2022/05/07 11:38:14;;;;;;;10.88;3.15;;;22.80;99.00;;;;;;5029946;28;20491;-73
2022/05/07 11:41:22;;;;;;;10.05;2.75;;;23.10;97.70;;;;;;5029744;28;20505;-73
2022/05/07 11:48:06;;;;;;;12.07;3.65;;;22.60;99.50;;;;;;5029832;28;20396;-73
2022/05/07 11:51:10;;;;;;;39.40;4.53;;;22.20;99.10;;;;;;5030438;28;20044;-76
2022/05/07 11:54:15;;;;;;;10.40;3.33;;;22.00;99.90;;;;;;5018170;28;20056;-74
2022/05/07 11:57:35;;;;;;;8.27;3.33;;;23.00;99.40;;;;;;5030593;28;20045;-73
2022/05/07 12:00:45;;;;;;;11.48;3.83;;;23.90;98.10;;;;;;5035146;28;20044;-70
2022/05/07 12:03:50;;;;;;;6.53;3.20;;;23.20;98.20;;;;;;5034741;28;20093;-72
2022/05/07 12:06:55;;;;;;;11.43;4.20;;;23.20;98.30;;;;;;5034118;28;20056;-74
2022/05/07 12:10:00;;;;;;;8.75;3.30;;;23.40;97.60;;;;;;5034136;28;20511;-74
2022/05/07 12:13:05;;;;;;;8.77;3.40;;;23.60;98.40;;;;;;5034438;28;20487;-75
2022/05/07 12:19:32;;;;;;;7.50;3.38;;;23.50;98.10;;;;;;5034379;28;20068;-73
2022/05/07 12:32:45;;;;;;;6.10;3.28;;;24.40;96.50;;;;;;5045882;28;20048;-73
2022/05/07 12:35:49;;;;;;;8.40;4.00;;;23.60;98.10;;;;;;5034348;28;20372;-72
2022/05/07 12:39:00;;;;;;;7.72;3.92;;;22.70;98.60;;;;;;5040016;28;20044;-73
2022/05/07 12:42:08;;;;;;;14.82;4.57;;;22.00;98.40;;;;;;5050464;28;20045;-72
2022/05/07 12:45:13;;;;;;;9.93;4.15;;;21.40;99.90;;;;;;5043713;28;20036;-71
2022/05/07 12:48:17;;;;;;;10.88;3.92;;;21.50;99.90;;;;;;5042782;28;20396;-71
2022/05/07 12:51:22;;;;;;;15.98;4.95;;;21.10;99.90;;;;;;5030214;28;20526;-72
2022/05/07 12:54:26;;;;;;;9.30;4.35;;;21.10;99.90;;;;;;5046903;28;20048;-70
2022/05/07 12:57:31;;;;;;;16.27;5.53;;;21.40;99.90;;;;;;5046625;28;20379;-70
2022/05/07 13:00:36;;;;;;;10.07;3.80;;;20.70;99.90;;;;;;5048939;28;20056;-71
2022/05/07 13:03:40;;;;;;;11.18;4.18;;;20.50;99.90;;;;;;5049682;28;20064;-73
2022/05/07 13:06:46;;;;;;;7.68;4.18;;;20.70;99.90;;;;;;5028411;28;20064;-72
2022/05/07 13:09:51;;;;;;;11.00;4.55;;;20.80;99.90;;;;;;5043803;28;20056;-70
2022/05/07 13:12:58;;;;;;;14.10;4.18;;;20.70;99.90;;;;;;5043269;28;20040;-71
2022/05/07 13:16:03;;;;;;;16.27;5.07;;;20.50;99.90;;;;;;5040900;28;20045;-72
2022/05/07 13:19:09;;;;;;;9.43;4.40;;;20.10;99.90;;;;;;5011782;28;20036;-71
2022/05/07 13:22:14;;;;;;;12.95;5.22;;;19.70;99.90;;;;;;5021326;28;20132;-71
2022/05/07 13:25:19;;;;;;;14.00;4.60;;;19.60;99.90;;;;;;5040671;28;20040;-71
2022/05/07 13:28:23;;;;;;;15.43;4.82;;;19.40;99.90;;;;;;5040918;28;20033;-70
2022/05/07 13:31:27;;;;;;;10.98;4.70;;;19.20;99.90;;;;;;5041892;28;20048;-70
2022/05/07 13:34:32;;;;;;;8.15;4.25;;;19.10;99.90;;;;;;5047460;28;20750;-71
2022/05/07 13:37:36;;;;;;;11.32;4.82;;;19.20;99.90;;;;;;5049928;28;20044;-70
2022/05/07 13:40:42;;;;;;;9.80;4.53;;;18.90;99.90;;;;;;5043600;28;20079;-71
2022/05/07 13:43:46;;;;;;;10.18;4.68;;;18.80;99.90;;;;;;5041057;28;20048;-70
2022/05/07 13:46:50;;;;;;;9.85;4.53;;;18.70;99.90;;;;;;5039807;28;20052;-71
2022/05/07 13:50:02;;;;;;;10.85;5.03;;;18.80;99.90;;;;;;5032517;28;20049;-70
2022/05/07 13:53:10;;;;;;;13.52;4.05;;;18.90;99.90;;;;;;5039462;28;20373;-71
2022/05/07 13:56:44;;;;;;;5.85;4.13;;;18.90;99.90;;;;;;5018542;28;20041;-72
2022/05/07 13:59:49;;;;;;;7.78;3.58;;;18.80;99.90;;;;;;5027064;28;20044;-69
2022/05/07 14:02:53;;;;;;;6.32;4.20;;;18.50;99.90;;;;;;5042957;28;20519;-71
2022/05/07 14:05:58;;;;;;;7.82;4.20;;;18.40;99.90;;;;;;5041178;28;20044;-71
2022/05/07 14:09:02;;;;;;;7.47;3.88;;;18.60;99.90;;;;;;5041829;28;20044;-71
2022/05/07 14:12:06;;;;;;;10.73;3.72;;;18.60;99.90;;;;;;5040402;28;20051;-72
2022/05/07 14:15:12;;;;;;;7.78;3.75;;;18.50;99.90;;;;;;5047532;28;20044;-71
2022/05/07 14:18:19;;;;;;;9.95;4.20;;;18.50;99.90;;;;;;5038851;28;20040;-72
2022/05/07 14:21:23;;;;;;;9.15;4.10;;;18.30;99.90;;;;;;5045599;28;20052;-73
2022/05/07 14:24:29;;;;;;;9.63;3.80;;;18.10;99.90;;;;;;5047415;28;20040;-72
2022/05/07 14:27:35;;;;;;;7.07;3.70;;;18.20;99.90;;;;;;5038770;28;20411;-71
2022/05/07 14:30:48;;;;;;;7.28;3.17;;;17.90;99.90;;;;;;5050552;28;20048;-71
2022/05/07 14:33:53;;;;;;;10.35;3.88;;;18.00;99.90;;;;;;5048158;28;20040;-71
2022/05/07 14:36:57;;;;;;;6.38;3.22;;;17.90;99.90;;;;;;5048976;28;20052;-71
2022/05/07 14:40:28;;;;;;;7.15;3.80;;;17.90;99.90;;;;;;5046750;28;20052;-70
2022/05/07 14:43:25;;;;;;;7.65;3.42;;;17.80;99.90;;;;;;5045429;28;20044;-72
2022/05/07 14:46:29;;;;;;;7.88;4.05;;;17.80;99.90;;;;;;5047746;28;20064;-70
2022/05/07 14:49:34;;;;;;;5.40;4.00;;;17.80;99.90;;;;;;5047230;28;20079;-71
2022/05/07 14:52:38;;;;;;;7.72;3.83;;;17.90;99.90;;;;;;5039722;28;20040;-71
2022/05/07 14:55:42;;;;;;;9.27;3.28;;;17.80;99.90;;;;;;5047511;28;20048;-71
2022/05/07 14:58:47;;;;;;;6.95;3.95;;;17.70;99.90;;;;;;5051377;28;20044;-70
2022/05/07 15:01:51;;;;;;;10.27;3.70;;;17.80;99.90;;;;;;5049087;28;20048;-73
2022/05/07 15:04:55;;;;;;;8.25;3.50;;;17.80;99.90;;;;;;5047248;28;20044;-72
2022/05/07 15:10:35;;;;;;;8.73;4.18;;;18.00;99.90;;;;;;5046441;28;20625;-72
2022/05/07 15:11:22;;;;;;;9.00;3.30;;;17.90;99.90;;;;;;5044686;28;20407;-73
2022/05/07 15:14:28;;;;;;;9.38;3.25;;;17.90;99.90;;;;;;5046803;28;20060;-71
2022/05/07 15:17:35;;;;;;;9.25;3.40;;;18.10;99.90;;;;;;5029657;28;20047;-70
2022/05/07 15:20:49;;;;;;;9.32;3.47;;;17.90;99.90;;;;;;5048888;28;20048;-71
2022/05/07 15:23:53;;;;;;;5.95;3.80;;;17.90;99.90;;;;;;5033973;28;20047;-72
2022/05/07 15:26:58;;;;;;;9.82;3.83;;;17.90;99.90;;;;;;5050018;28;20048;-70
2022/05/07 15:30:02;;;;;;;9.27;4.45;;;18.10;99.90;;;;;;5049792;28;20043;-71
2022/05/07 15:36:49;;;;;;;7.63;3.53;;;18.20;99.90;;;;;;5042904;28;20047;-73
2022/05/07 15:39:53;;;;;;;11.75;3.42;;;18.40;99.90;;;;;;5040440;28;20498;-70
2022/05/07 15:42:57;;;;;;;9.23;3.20;;;18.40;99.90;;;;;;5038916;28;20455;-72
2022/05/07 15:46:03;;;;;;;8.20;3.67;;;18.10;99.90;;;;;;5042565;28;20085;-71
2022/05/07 15:49:10;;;;;;;10.50;3.97;;;17.90;99.90;;;;;;5040584;28;20040;-71
2022/05/07 15:52:15;;;;;;;8.95;3.97;;;17.90;99.90;;;;;;5039904;28;20048;-70
2022/05/07 15:55:18;;;;;;;11.40;4.07;;;17.80;99.90;;;;;;5043447;28;20491;-71
2022/05/07 15:58:23;;;;;;;12.65;4.53;;;17.80;99.90;;;;;;5040598;28;20407;-69
2022/05/07 16:01:27;;;;;;;9.50;3.45;;;17.90;99.90;;;;;;5041694;28;20052;-71
2022/05/07 16:04:34;;;;;;;7.38;3.88;;;17.90;99.90;;;;;;5038906;28;20044;-71
2022/05/07 16:07:38;;;;;;;10.00;4.15;;;18.00;99.90;;;;;;5040628;28;20098;-71
2022/05/07 16:10:44;;;;;;;7.97;3.45;;;17.80;99.90;;;;;;5045987;28;20068;-71
2022/05/07 16:13:48;;;;;;;10.77;3.38;;;17.70;99.90;;;;;;5043278;28;20075;-69
2022/05/07 16:16:51;;;;;;;6.47;3.22;;;17.40;99.90;;;;;;5038279;28;20361;-71
2022/05/07 16:19:55;;;;;;;12.77;3.70;;;17.20;99.90;;;;;;5054775;28;20383;-72
2022/05/07 16:26:22;;;;;;;10.65;5.72;;;17.10;99.90;;;;;;5040546;28;20060;-72
2022/05/07 16:29:26;;;;;;;6.20;3.47;;;17.10;99.90;;;;;;5054842;28;20387;-70
2022/05/07 16:32:30;;;;;;;9.32;3.42;;;17.20;99.90;;;;;;5051513;28;20669;-70
2022/05/07 16:35:35;;;;;;;6.53;3.40;;;17.20;99.90;;;;;;5042043;28;20048;-73
2022/05/07 16:38:39;;;;;;;8.88;4.47;;;17.20;99.90;;;;;;5045898;28;20048;-75
2022/05/07 16:41:44;;;;;;;7.10;3.47;;;17.20;99.90;;;;;;5045122;28;20044;-74
2022/05/07 16:44:48;;;;;;;7.75;3.88;;;17.30;99.90;;;;;;5048657;28;20044;-73
2022/05/07 16:47:51;;;;;;;7.82;4.28;;;17.30;99.90;;;;;;5053959;28;20056;-74
2022/05/07 16:50:55;;;;;;;15.57;4.90;;;17.40;99.90;;;;;;5036092;28;20053;-74
2022/05/07 16:54:02;;;;;;;16.20;4.15;;;17.40;99.90;;;;;;5038075;28;20044;-74
2022/05/07 16:57:07;;;;;;;11.68;3.63;;;17.40;99.90;;;;;;5049798;28;20076;-74
2022/05/07 17:00:12;;;;;;;9.93;3.55;;;17.40;99.90;;;;;;5053363;28;20052;-73
2022/05/07 17:03:16;;;;;;;9.75;3.80;;;17.40;99.90;;;;;;5046242;28;20055;-74
2022/05/07 17:06:27;;;;;;;9.35;3.90;;;17.30;99.90;;;;;;5049639;28;20052;-73